Time;durP1;ratioP1;P1;durP2;ratioP2;P2;SDS_P1;SDS_P2;PMS_P1;PMS_P2;Temp;Humidity;BMP_temperature;BMP_pressure;BME280_temperature;BME280_humidity;BME280_pressure;Samples;Min_cycle;Max_cycle;Signal;HPM_P1;HPM_P2
2022/12/17 13:06:44;;;;;;;59.78;23.83;;;0.50;99.90;;;;;;5053807;28;20049;-70
2022/12/17 13:09:22;;;;;;;58.92;22.08;;;0.40;99.90;;;;;;5035781;28;20041;-71
2022/12/17 13:11:55;;;;;;;62.08;23.70;;;0.40;99.90;;;;;;5051649;28;20181;-70
2022/12/17 13:14:45;;;;;;;58.13;21.60;;;0.40;99.90;;;;;;5052628;28;20033;-70
2022/12/17 13:17:14;;;;;;;56.13;22.20;;;0.50;99.90;;;;;;5051888;28;20056;-70
2022/12/17 13:19:43;;;;;;;56.58;22.52;;;0.50;99.90;;;;;;5052060;28;20041;-70
2022/12/17 13:22:14;;;;;;;57.80;21.63;;;0.40;99.90;;;;;;5051944;28;20409;-70
2022/12/17 13:24:41;;;;;;;57.78;22.35;;;0.40;99.90;;;;;;5052689;28;20143;-70
2022/12/17 13:27:30;;;;;;;57.83;23.20;;;0.40;99.90;;;;;;5051672;28;20049;-70
2022/12/17 13:29:58;;;;;;;59.38;22.58;;;0.20;99.90;;;;;;5035437;28;20406;-70
2022/12/17 13:32:38;;;;;;;69.50;23.83;;;0.40;99.90;;;;;;5051252;28;20047;-70
2022/12/17 13:35:24;;;;;;;61.15;23.00;;;0.30;99.90;;;;;;5051752;28;20072;-70
2022/12/17 13:38:25;;;;;;;64.28;22.88;;;0.20;99.90;;;;;;5051391;28;20080;-71
2022/12/17 13:41:07;;;;;;;61.38;24.08;;;0.20;99.90;;;;;;5051806;28;20469;-71
2022/12/17 13:43:55;;;;;;;65.68;21.33;;;0.20;99.90;;;;;;5051602;28;20103;-70
2022/12/17 13:46:27;;;;;;;59.50;21.52;;;0.20;99.90;;;;;;5052744;28;20044;-70
2022/12/17 13:49:01;;;;;;;57.70;22.85;;;0.10;99.90;;;;;;5052264;28;20127;-70
2022/12/17 13:51:30;;;;;;;58.92;20.42;;;0.20;99.90;;;;;;5052120;28;20095;-70
2022/12/17 13:53:58;;;;;;;62.03;23.02;;;0.10;99.90;;;;;;5050401;28;20087;-70
2022/12/17 13:56:27;;;;;;;62.03;22.05;;;0.10;99.90;;;;;;5052614;28;20036;-70
2022/12/17 13:58:55;;;;;;;65.13;22.00;;;0.10;99.90;;;;;;5052523;28;20079;-70
2022/12/17 14:01:21;;;;;;;60.83;22.27;;;0.20;99.90;;;;;;5052562;28;20620;-70
2022/12/17 14:03:53;;;;;;;70.50;22.98;;;0.10;99.90;;;;;;5050701;28;20437;-70
2022/12/17 14:06:20;;;;;;;65.65;22.35;;;0.10;99.90;;;;;;5050902;28;20112;-70
2022/12/17 14:08:47;;;;;;;60.70;22.20;;;0.10;99.90;;;;;;5051033;28;20068;-71
2022/12/17 14:13:57;;;;;;;62.33;21.95;;;-0.10;99.90;;;;;;5051720;28;20052;-70
2022/12/17 14:16:23;;;;;;;61.17;22.30;;;0.00;99.90;;;;;;5051932;28;20423;-70
2022/12/17 14:18:55;;;;;;;66.70;23.77;;;-0.10;99.90;;;;;;5034269;28;20053;-70
2022/12/17 14:21:21;;;;;;;59.05;19.58;;;-0.10;99.90;;;;;;5052410;28;20037;-70
2022/12/17 14:23:50;;;;;;;60.65;22.15;;;-0.20;99.90;;;;;;5051412;28;20678;-70
2022/12/17 14:26:16;;;;;;;57.58;21.35;;;-0.30;99.90;;;;;;5050636;28;20048;-70
2022/12/17 14:28:45;;;;;;;51.17;19.13;;;-0.30;99.90;;;;;;5052068;28;20041;-70
2022/12/17 14:31:13;;;;;;;56.17;19.30;;;-0.30;99.90;;;;;;5050284;28;20136;-70
2022/12/17 14:33:40;;;;;;;54.42;19.20;;;-0.40;99.90;;;;;;5050712;28;20153;-72
2022/12/17 14:36:15;;;;;;;56.05;20.30;;;-0.40;99.90;;;;;;5051403;28;20102;-71
2022/12/17 14:38:50;;;;;;;55.22;21.42;;;-0.30;99.90;;;;;;5050817;28;20077;-70
2022/12/17 14:44:02;;;;;;;57.10;19.98;;;-0.10;99.90;;;;;;5049780;28;20048;-70
2022/12/17 14:46:29;;;;;;;68.28;22.65;;;-0.20;99.90;;;;;;5050067;28;20045;-70
2022/12/17 14:49:00;;;;;;;57.17;19.38;;;-0.20;99.90;;;;;;5051861;28;20041;-72
2022/12/17 14:51:40;;;;;;;63.67;21.30;;;-0.10;99.90;;;;;;5050233;28;20823;-71
2022/12/17 14:54:12;;;;;;;67.00;22.08;;;-0.20;99.90;;;;;;5049682;28;20444;-71
2022/12/17 14:56:39;;;;;;;51.22;21.23;;;-0.20;99.90;;;;;;5051505;28;20052;-70
2022/12/17 14:59:32;;;;;;;59.55;20.38;;;-0.20;99.90;;;;;;5048263;28;20045;-70
2022/12/17 15:02:14;;;;;;;;;;;-0.30;99.90;;;;;;5031154;28;20073;-71
2022/12/17 15:04:40;;;;;;;52.17;18.02;;;-0.20;99.90;;;;;;5028315;28;19921;-71
2022/12/17 15:07:06;;;;;;;59.13;18.92;;;-0.30;99.90;;;;;;5019838;28;20037;-72
2022/12/17 15:09:36;;;;;;;48.03;18.17;;;-0.30;99.90;;;;;;5021675;28;20045;-70
2022/12/17 15:12:02;;;;;;;50.25;17.75;;;-0.30;99.90;;;;;;5027583;28;20045;-69
2022/12/17 15:14:27;;;;;;;61.38;19.50;;;-0.30;99.90;;;;;;5012387;28;20064;-70
2022/12/17 15:16:55;;;;;;;51.05;18.05;;;-0.40;99.90;;;;;;5013477;28;20048;-70
2022/12/17 15:19:21;;;;;;;56.85;18.77;;;-0.40;99.90;;;;;;5031362;28;20469;-69
2022/12/17 15:21:46;;;;;;;56.35;20.23;;;-0.40;99.90;;;;;;5031222;28;20057;-69
2022/12/17 15:24:17;;;;;;;63.83;21.10;;;-0.60;99.90;;;;;;5030177;28;20040;-69
2022/12/17 15:26:43;;;;;;;55.28;19.65;;;-0.50;99.90;;;;;;5013142;28;20052;-69
2022/12/17 15:29:08;;;;;;;53.38;18.77;;;-0.30;99.90;;;;;;5031218;28;20390;-69
2022/12/17 15:31:34;;;;;;;71.00;20.20;;;-0.40;99.90;;;;;;5030860;28;20095;-69
2022/12/17 15:34:00;;;;;;;53.13;20.13;;;-0.30;99.90;;;;;;5012024;28;20477;-69
2022/12/17 15:36:25;;;;;;;57.67;19.35;;;-0.30;99.90;;;;;;5030830;28;20041;-69
2022/12/17 15:38:51;;;;;;;60.03;19.23;;;-0.40;99.90;;;;;;5030830;28;20048;-70
2022/12/17 15:44:01;;;;;;;58.67;18.52;;;-0.30;99.90;;;;;;5042855;28;20409;-69
2022/12/17 15:46:28;;;;;;;61.53;21.20;;;-0.40;99.90;;;;;;5031893;28;20295;-70
2022/12/17 15:48:55;;;;;;;63.80;20.27;;;-0.40;99.90;;;;;;5047933;28;20040;-70
2022/12/17 15:51:22;;;;;;;59.58;19.73;;;-0.40;99.90;;;;;;5035355;28;20539;-70
2022/12/17 15:53:51;;;;;;;56.45;19.25;;;-0.30;99.90;;;;;;5030647;28;20067;-71
2022/12/17 15:56:25;;;;;;;63.38;22.60;;;-0.30;99.90;;;;;;5047377;28;20047;-70
2022/12/17 15:58:51;;;;;;;59.15;20.70;;;-0.40;99.90;;;;;;5039507;28;20516;-69
2022/12/17 16:01:17;;;;;;;66.55;23.73;;;-0.30;99.90;;;;;;5043871;28;20049;-69
2022/12/17 16:03:42;;;;;;;59.80;19.85;;;-0.20;99.90;;;;;;5049120;28;20478;-69
2022/12/17 16:06:08;;;;;;;57.75;20.73;;;-0.30;99.90;;;;;;5048505;28;20043;-70
2022/12/17 16:08:37;;;;;;;62.42;21.75;;;-0.20;99.90;;;;;;5048963;28;20528;-73
2022/12/17 16:11:06;;;;;;;59.28;21.25;;;-0.20;99.90;;;;;;5048023;28;20045;-71
2022/12/17 16:13:32;;;;;;;57.53;19.98;;;-0.30;99.90;;;;;;5047272;28;20045;-71
2022/12/17 16:15:57;;;;;;;63.22;22.88;;;-0.30;99.90;;;;;;5038576;28;20060;-71
2022/12/17 16:18:23;;;;;;;61.92;20.48;;;-0.40;99.90;;;;;;5043815;28;20516;-72
2022/12/17 16:20:49;;;;;;;62.08;21.83;;;-0.40;99.90;;;;;;5048745;28;20055;-71
2022/12/17 16:23:15;;;;;;;56.40;19.92;;;-0.40;99.90;;;;;;5048019;28;20090;-70
2022/12/17 16:25:41;;;;;;;58.40;22.08;;;-0.40;99.90;;;;;;5048563;28;20040;-70
2022/12/17 16:28:07;;;;;;;65.32;21.80;;;-0.60;99.90;;;;;;5049140;28;20393;-71
2022/12/17 16:30:33;;;;;;;68.15;21.20;;;-0.50;99.90;;;;;;5031076;28;20041;-70
2022/12/17 16:32:59;;;;;;;65.60;22.33;;;-0.50;99.90;;;;;;5048599;28;20032;-71
2022/12/17 16:35:25;;;;;;;59.92;20.70;;;-0.50;99.90;;;;;;5047580;28;20140;-72
2022/12/17 16:37:51;;;;;;;61.65;22.35;;;-0.50;99.90;;;;;;5049159;28;20045;-73
2022/12/17 16:40:16;;;;;;;62.78;22.30;;;-0.60;99.90;;;;;;5049460;28;20052;-71
2022/12/17 16:42:42;;;;;;;60.50;21.55;;;-0.40;99.90;;;;;;5049235;28;20120;-71
2022/12/17 16:45:08;;;;;;;57.25;21.15;;;-0.50;99.90;;;;;;5044821;28;20091;-70
2022/12/17 16:47:33;;;;;;;63.53;23.60;;;-0.50;99.90;;;;;;5041316;28;20065;-71
2022/12/17 16:49:59;;;;;;;63.30;23.25;;;-0.40;99.90;;;;;;5035312;28;20559;-71
2022/12/17 16:52:24;;;;;;;60.55;23.02;;;-0.50;99.90;;;;;;5044721;28;20038;-70
2022/12/17 16:54:50;;;;;;;62.70;24.10;;;-0.50;99.90;;;;;;5037636;28;20091;-71
2022/12/17 16:57:16;;;;;;;61.53;24.92;;;-0.40;99.90;;;;;;5047289;28;20167;-71
2022/12/17 16:59:41;;;;;;;326.42;70.15;;;-0.50;99.90;;;;;;5037284;28;20041;-72
2022/12/17 17:02:12;;;;;;;120.25;35.17;;;-0.20;99.90;;;;;;5034298;28;20041;-72
2022/12/17 17:04:38;;;;;;;156.80;46.58;;;-0.30;99.90;;;;;;5035203;28;20119;-71
2022/12/17 17:07:04;;;;;;;128.75;37.58;;;-0.40;99.90;;;;;;5050177;28;20096;-72
2022/12/17 17:09:29;;;;;;;93.43;29.27;;;-0.40;99.90;;;;;;5050392;28;20033;-72
2022/12/17 17:11:57;;;;;;;66.18;24.45;;;-0.40;99.90;;;;;;5049645;28;20580;-72
2022/12/17 17:14:24;;;;;;;62.80;26.45;;;-0.40;99.90;;;;;;5048541;28;20394;-70
2022/12/17 17:16:50;;;;;;;66.38;26.30;;;-0.50;99.90;;;;;;5049793;28;20041;-71
2022/12/17 17:19:17;;;;;;;71.43;26.55;;;-0.50;99.90;;;;;;5048609;28;20033;-73
2022/12/17 17:21:49;;;;;;;61.58;25.60;;;-0.60;99.90;;;;;;5045306;28;20129;-70
2022/12/17 17:24:16;;;;;;;61.92;25.75;;;-0.60;99.90;;;;;;5049606;28;20094;-70
2022/12/17 17:26:42;;;;;;;64.22;25.88;;;-0.60;99.90;;;;;;5051162;28;20087;-70
2022/12/17 17:29:08;;;;;;;67.45;26.48;;;-0.70;99.90;;;;;;5051515;28;20040;-70
2022/12/17 17:31:35;;;;;;;62.35;27.10;;;-0.60;99.90;;;;;;5051590;28;20077;-70
2022/12/17 17:34:09;;;;;;;64.32;25.88;;;-0.60;99.90;;;;;;5050849;28;20517;-72
2022/12/17 17:36:35;;;;;;;69.30;27.00;;;-0.60;99.90;;;;;;5034003;28;20037;-70
2022/12/17 17:39:01;;;;;;;69.22;28.73;;;-0.60;99.90;;;;;;5046835;28;20040;-70
2022/12/17 17:41:28;;;;;;;62.03;26.58;;;-0.60;99.90;;;;;;5042060;28;20045;-71
2022/12/17 17:44:12;;;;;;;59.40;25.20;;;-0.70;99.90;;;;;;5042415;28;20070;-71
2022/12/17 17:46:38;;;;;;;65.30;24.75;;;-0.70;99.90;;;;;;5050885;28;20091;-71
2022/12/17 17:49:06;;;;;;;55.95;24.98;;;-0.80;99.90;;;;;;5045536;28;20093;-71
2022/12/17 17:51:36;;;;;;;60.13;25.80;;;-0.70;99.90;;;;;;5043216;28;20049;-73
2022/12/17 17:54:02;;;;;;;65.95;24.88;;;-0.80;99.90;;;;;;5049093;28;20041;-70
2022/12/17 17:56:31;;;;;;;63.90;24.85;;;-0.90;99.90;;;;;;5050155;28;20405;-71
2022/12/17 17:59:06;;;;;;;66.97;25.92;;;-1.00;99.90;;;;;;5036257;28;20068;-70
2022/12/17 18:01:34;;;;;;;70.53;26.02;;;-0.90;99.90;;;;;;5050223;28;20053;-69
2022/12/17 18:04:04;;;;;;;64.38;24.80;;;-0.90;99.90;;;;;;5049412;28;20056;-71
2022/12/17 18:06:31;;;;;;;62.08;25.02;;;-0.90;99.90;;;;;;5033150;28;20041;-70
2022/12/17 18:08:58;;;;;;;58.58;23.90;;;-0.90;99.90;;;;;;5050229;28;20045;-72
2022/12/17 18:11:27;;;;;;;69.97;26.33;;;-1.00;99.90;;;;;;5050227;28;20049;-70
2022/12/17 18:13:54;;;;;;;61.35;23.75;;;-1.00;99.90;;;;;;5048959;28;20056;-71
2022/12/17 18:16:31;;;;;;;65.75;25.65;;;-1.10;99.90;;;;;;5049731;28;20519;-71
2022/12/17 18:19:00;;;;;;;67.72;26.17;;;-1.00;99.90;;;;;;5033206;28;20040;-71
2022/12/17 18:21:28;;;;;;;59.15;23.23;;;-0.80;99.90;;;;;;5050215;28;20049;-71
2022/12/17 18:23:55;;;;;;;66.88;27.35;;;-1.00;99.90;;;;;;5032825;28;20505;-70
2022/12/17 18:26:22;;;;;;;65.78;26.63;;;-1.00;99.90;;;;;;5049936;28;20079;-72
2022/12/17 18:28:48;;;;;;;65.40;27.23;;;-0.80;99.90;;;;;;5034027;28;20451;-71
2022/12/17 18:31:13;;;;;;;70.25;27.35;;;-0.80;99.90;;;;;;5048642;28;20045;-70
2022/12/17 18:33:41;;;;;;;67.95;27.15;;;-0.80;99.90;;;;;;5049659;28;20067;-71
2022/12/17 18:36:12;;;;;;;65.55;25.95;;;-0.70;99.90;;;;;;5049992;28;20045;-70
2022/12/17 18:38:38;;;;;;;65.50;24.70;;;-0.70;99.90;;;;;;5049483;28;20115;-70
2022/12/17 18:44:03;;;;;;;69.97;28.23;;;-0.90;99.90;;;;;;5049963;28;20460;-70
2022/12/17 18:46:30;;;;;;;77.38;27.88;;;-0.80;99.90;;;;;;5032550;28;20048;-69
2022/12/17 18:49:02;;;;;;;72.07;27.98;;;-0.90;99.90;;;;;;5041835;28;20049;-70
2022/12/17 18:51:27;;;;;;;77.90;27.92;;;-0.80;99.90;;;;;;5043963;28;20552;-70
2022/12/17 18:53:58;;;;;;;72.78;27.88;;;-0.70;99.90;;;;;;5049682;28;20067;-70
2022/12/17 18:56:24;;;;;;;66.57;26.25;;;-0.70;99.90;;;;;;5049857;28;20501;-70
2022/12/17 18:58:55;;;;;;;73.53;27.92;;;-0.70;99.90;;;;;;5050542;28;20040;-70
2022/12/17 19:01:29;;;;;;;83.50;29.65;;;-0.60;99.90;;;;;;5049059;28;20521;-70
2022/12/17 19:03:55;;;;;;;68.63;27.50;;;-0.70;99.90;;;;;;5050026;28;20072;-69
2022/12/17 19:06:22;;;;;;;71.90;27.58;;;-0.70;99.90;;;;;;5049098;28;20477;-70
2022/12/17 19:08:48;;;;;;;76.13;28.52;;;-0.80;99.90;;;;;;5049139;28;20153;-69
2022/12/17 19:11:17;;;;;;;72.63;27.45;;;-0.80;99.90;;;;;;5050007;28;20728;-69
2022/12/17 19:13:43;;;;;;;63.85;26.23;;;-0.80;99.90;;;;;;5047531;28;20076;-70
2022/12/17 19:16:12;;;;;;;71.55;26.35;;;-0.80;99.90;;;;;;5031661;28;20033;-70
2022/12/17 19:18:38;;;;;;;76.57;25.70;;;-0.70;99.90;;;;;;5048775;28;20547;-69
2022/12/17 19:21:05;;;;;;;71.43;28.02;;;-0.90;99.90;;;;;;5049030;28;20120;-70
2022/12/17 19:23:32;;;;;;;74.20;27.33;;;-0.90;99.90;;;;;;5049708;28;20049;-70
2022/12/17 19:26:09;;;;;;;67.95;25.05;;;-0.90;99.90;;;;;;5048119;28;20040;-69
2022/12/17 19:28:35;;;;;;;62.33;24.58;;;-1.10;99.90;;;;;;5048880;28;20073;-70
2022/12/17 19:31:00;;;;;;;80.50;28.20;;;-1.10;99.90;;;;;;5050309;28;20080;-70
2022/12/17 19:33:26;;;;;;;69.72;29.05;;;-1.10;99.90;;;;;;5032403;28;20455;-71
2022/12/17 19:36:09;;;;;;;75.15;28.35;;;-1.00;99.90;;;;;;5047632;28;20531;-70
2022/12/17 19:38:35;;;;;;;68.78;25.65;;;-1.00;99.90;;;;;;5048646;28;20059;-69
2022/12/17 19:41:05;;;;;;;69.18;26.08;;;-0.90;99.90;;;;;;5048564;28;20513;-70
2022/12/17 19:43:31;;;;;;;72.28;25.73;;;-1.10;99.90;;;;;;5048557;28;20124;-70
2022/12/17 19:46:05;;;;;;;74.20;27.42;;;-1.10;99.90;;;;;;5047537;28;20450;-69
2022/12/17 19:48:33;;;;;;;75.90;27.00;;;-1.00;99.90;;;;;;5044804;28;20505;-71
2022/12/17 19:50:59;;;;;;;75.90;26.95;;;-0.80;99.90;;;;;;5039070;28;20615;-71
2022/12/17 19:53:27;;;;;;;71.13;25.33;;;-1.00;99.90;;;;;;5048397;28;20048;-71
2022/12/17 19:56:07;;;;;;;71.78;23.65;;;-0.80;99.90;;;;;;5031530;28;20485;-69
2022/12/17 19:58:32;;;;;;;69.10;24.10;;;-0.90;99.90;;;;;;5031902;28;20708;-70
2022/12/17 20:01:05;;;;;;;68.18;24.90;;;-1.20;99.90;;;;;;5049852;28;20041;-70
2022/12/17 20:03:30;;;;;;;67.75;23.33;;;-1.10;99.90;;;;;;5047767;28;20036;-70
2022/12/17 20:05:56;;;;;;;71.03;26.10;;;-1.20;99.90;;;;;;5049029;28;20033;-72
2022/12/17 20:08:21;;;;;;;60.92;23.77;;;-1.10;99.90;;;;;;5048374;28;20040;-70
2022/12/17 20:10:47;;;;;;;59.60;22.40;;;-1.30;99.90;;;;;;5048566;28;20501;-71
2022/12/17 20:13:12;;;;;;;56.17;22.63;;;-1.30;99.90;;;;;;5049849;28;20505;-70
2022/12/17 20:15:38;;;;;;;61.75;23.45;;;-1.30;99.90;;;;;;5048254;28;20033;-69
2022/12/17 20:18:04;;;;;;;66.55;23.02;;;-1.30;99.90;;;;;;5049411;28;20633;-70
2022/12/17 20:20:29;;;;;;;64.82;25.02;;;-1.30;99.90;;;;;;5048538;28;20405;-71
2022/12/17 20:22:55;;;;;;;65.43;25.00;;;-1.30;99.90;;;;;;5047893;28;20559;-70
2022/12/17 20:25:20;;;;;;;68.82;25.73;;;-1.40;99.90;;;;;;5045911;28;20080;-69
2022/12/17 20:27:46;;;;;;;77.07;27.35;;;-1.30;99.90;;;;;;5048309;28;20048;-69
2022/12/17 20:30:12;;;;;;;66.55;24.50;;;-1.30;99.90;;;;;;5049954;28;20628;-70
2022/12/17 20:32:37;;;;;;;66.40;24.40;;;-1.30;99.90;;;;;;5048665;28;20049;-70
2022/12/17 20:35:03;;;;;;;71.40;24.35;;;-1.30;99.90;;;;;;5047668;28;20045;-69
2022/12/17 20:37:29;;;;;;;66.85;25.48;;;-1.20;99.90;;;;;;5048403;28;20087;-69
2022/12/17 20:39:55;;;;;;;70.18;23.50;;;-1.20;99.90;;;;;;5048463;28;20037;-69
2022/12/17 20:42:20;;;;;;;66.95;24.85;;;-1.20;99.90;;;;;;5047952;28;20083;-69
2022/12/17 20:44:46;;;;;;;64.57;23.92;;;-1.30;99.90;;;;;;5049117;28;20033;-69
2022/12/17 20:47:11;;;;;;;66.10;22.35;;;-1.30;99.90;;;;;;5049782;28;20037;-70
2022/12/17 20:49:37;;;;;;;71.88;25.02;;;-1.50;99.90;;;;;;5044474;28;20033;-69
2022/12/17 20:52:03;;;;;;;62.78;23.95;;;-1.30;99.90;;;;;;5036490;28;20047;-70
2022/12/17 20:54:28;;;;;;;72.10;25.77;;;-1.40;99.90;;;;;;5028332;28;20052;-69
2022/12/17 20:56:54;;;;;;;71.65;25.13;;;-1.40;99.90;;;;;;5029315;28;20044;-69
2022/12/17 20:59:20;;;;;;;76.57;25.88;;;-1.40;99.90;;;;;;5030173;28;20037;-69
2022/12/17 21:01:46;;;;;;;71.80;25.88;;;-1.40;99.90;;;;;;5033637;28;20332;-69
2022/12/17 21:04:15;;;;;;;69.90;24.80;;;-1.40;99.90;;;;;;5031753;28;20453;-69
2022/12/17 21:06:43;;;;;;;74.07;24.30;;;-1.40;99.90;;;;;;5042234;28;20037;-69
2022/12/17 21:09:10;;;;;;;67.22;23.27;;;-1.60;99.90;;;;;;5051849;28;20036;-70
2022/12/17 21:11:37;;;;;;;58.42;21.63;;;-1.70;99.90;;;;;;5052263;28;20056;-69
2022/12/17 21:14:14;;;;;;;67.63;22.10;;;-1.80;99.90;;;;;;5032395;28;20087;-69
2022/12/17 21:16:44;;;;;;;64.57;22.83;;;-1.70;99.90;;;;;;5035777;28;20056;-69
2022/12/17 21:19:14;;;;;;;61.72;22.45;;;-1.80;99.90;;;;;;5037662;28;20128;-69
2022/12/17 21:21:39;;;;;;;64.68;22.40;;;-1.80;99.90;;;;;;5040261;28;20580;-69
2022/12/17 21:24:05;;;;;;;56.25;22.63;;;-1.60;99.90;;;;;;5020784;28;20128;-69
2022/12/17 21:26:34;;;;;;;65.25;21.60;;;-1.70;99.90;;;;;;5038300;28;20472;-69
2022/12/17 21:29:02;;;;;;;63.05;21.60;;;-1.70;99.90;;;;;;5032352;28;20036;-70
2022/12/17 21:31:37;;;;;;;59.08;21.25;;;-1.80;99.90;;;;;;5040919;28;20037;-70
2022/12/17 21:34:04;;;;;;;73.00;23.90;;;-1.90;99.90;;;;;;5038866;28;20046;-69
2022/12/17 21:36:32;;;;;;;66.55;21.77;;;-1.90;99.90;;;;;;5039887;28;20044;-69
2022/12/17 21:38:58;;;;;;;67.97;23.90;;;-2.00;99.90;;;;;;5039024;28;20049;-69
2022/12/17 21:41:31;;;;;;;72.68;24.45;;;-2.00;99.90;;;;;;5031216;28;20371;-69
2022/12/17 21:43:59;;;;;;;60.40;22.83;;;-2.00;99.90;;;;;;5030998;28;20045;-70
2022/12/17 21:46:26;;;;;;;72.00;22.45;;;-2.00;99.90;;;;;;5030801;28;20041;-69
2022/12/17 21:48:52;;;;;;;64.10;24.25;;;-2.00;99.90;;;;;;5032494;28;20037;-70
2022/12/17 21:51:19;;;;;;;67.45;23.05;;;-1.90;99.90;;;;;;5045913;28;20086;-69
2022/12/17 21:53:44;;;;;;;72.25;24.15;;;-2.00;99.90;;;;;;5051632;28;20037;-71
2022/12/17 21:56:15;;;;;;;61.80;20.85;;;-2.00;99.90;;;;;;5052693;28;20045;-69
2022/12/17 21:58:42;;;;;;;73.70;23.95;;;-2.00;99.90;;;;;;5052420;28;20126;-69
2022/12/17 22:01:20;;;;;;;59.92;20.90;;;-2.00;99.90;;;;;;5033697;28;20131;-69
2022/12/17 22:03:48;;;;;;;63.05;23.02;;;-2.00;99.90;;;;;;5051495;28;20174;-70
2022/12/17 22:06:16;;;;;;;64.80;23.25;;;-2.00;99.90;;;;;;5052211;28;20112;-69
2022/12/17 22:08:43;;;;;;;71.05;25.25;;;-2.10;99.90;;;;;;5052063;28;20405;-70
2022/12/17 22:11:10;;;;;;;68.93;22.42;;;-2.10;99.90;;;;;;5050571;28;20523;-70
2022/12/17 22:16:22;;;;;;;69.30;24.55;;;-2.10;99.90;;;;;;5050950;28;20064;-69
2022/12/17 22:18:47;;;;;;;67.93;21.02;;;-2.00;99.90;;;;;;5050573;28;20647;-70
2022/12/17 22:21:13;;;;;;;63.05;21.85;;;-2.00;99.90;;;;;;5050670;28;20048;-70
2022/12/17 22:23:38;;;;;;;60.30;20.30;;;-2.10;99.90;;;;;;5050818;28;20041;-69
2022/12/17 22:26:09;;;;;;;68.20;22.73;;;-2.10;99.90;;;;;;5050849;28;20139;-69
2022/12/17 22:28:35;;;;;;;71.90;24.08;;;-1.90;99.90;;;;;;5051985;28;20075;-69
2022/12/17 22:33:50;;;;;;;68.57;23.20;;;-2.00;99.90;;;;;;5050910;28;20077;-68
2022/12/17 22:36:15;;;;;;;67.97;21.63;;;-2.10;99.90;;;;;;5052586;28;20080;-69
2022/12/17 22:38:41;;;;;;;63.75;20.83;;;-2.20;99.90;;;;;;5052338;28;20119;-69
2022/12/17 22:41:07;;;;;;;69.03;23.55;;;-2.20;99.90;;;;;;5052301;28;20099;-68
2022/12/17 22:43:33;;;;;;;61.75;22.88;;;-2.10;99.90;;;;;;5050673;28;20506;-70
2022/12/17 22:46:01;;;;;;;70.18;22.77;;;-2.10;99.90;;;;;;5033689;28;20041;-69
2022/12/17 22:48:28;;;;;;;76.35;24.48;;;-2.00;99.90;;;;;;5052077;28;20116;-69
2022/12/17 22:50:54;;;;;;;69.10;23.83;;;-2.10;99.90;;;;;;5052250;28;20032;-69
2022/12/17 22:53:20;;;;;;;71.93;24.55;;;-2.10;99.90;;;;;;5050547;28;20037;-69
2022/12/17 22:55:47;;;;;;;83.72;25.65;;;-2.10;99.90;;;;;;5051131;28;20048;-70
2022/12/17 22:58:12;;;;;;;69.18;22.70;;;-2.00;99.90;;;;;;5051691;28;20041;-69
2022/12/17 23:00:38;;;;;;;78.10;24.60;;;-2.00;99.90;;;;;;5051553;28;20074;-69
2022/12/17 23:03:04;;;;;;;80.95;26.63;;;-2.00;99.90;;;;;;5051862;28;20386;-69
2022/12/17 23:05:30;;;;;;;70.88;26.65;;;-1.90;99.90;;;;;;5051117;28;20041;-68
2022/12/17 23:07:56;;;;;;;77.55;24.33;;;-1.80;99.90;;;;;;5050156;28;20041;-69
2022/12/17 23:10:23;;;;;;;72.03;22.88;;;-1.90;99.90;;;;;;5050224;28;20045;-69
2022/12/17 23:12:54;;;;;;;77.93;25.15;;;-1.90;99.90;;;;;;5051586;28;20033;-70
2022/12/17 23:15:31;;;;;;;68.78;23.30;;;-2.00;99.90;;;;;;5050654;28;20033;-68
2022/12/17 23:17:59;;;;;;;73.90;23.92;;;-2.10;99.90;;;;;;5051348;28;20583;-70
2022/12/17 23:20:27;;;;;;;82.18;24.67;;;-2.00;99.90;;;;;;5051538;28;20478;-69
2022/12/17 23:22:53;;;;;;;75.82;24.05;;;-2.20;99.90;;;;;;5050616;28;20037;-70
2022/12/17 23:25:20;;;;;;;70.10;25.00;;;-2.10;99.90;;;;;;5050412;28;20037;-69
2022/12/17 23:27:47;;;;;;;78.75;23.70;;;-2.20;99.90;;;;;;5051373;28;20094;-69
2022/12/17 23:30:13;;;;;;;78.57;26.67;;;-2.20;99.90;;;;;;5051376;28;20041;-68
2022/12/17 23:32:39;;;;;;;88.57;26.17;;;-2.20;99.90;;;;;;5049957;28;20072;-70
2022/12/17 23:35:06;;;;;;;81.03;27.50;;;-2.10;99.90;;;;;;5049243;28;20517;-70
2022/12/17 23:37:32;;;;;;;87.45;26.60;;;-2.20;99.90;;;;;;5049779;28;20132;-69
2022/12/17 23:39:57;;;;;;;84.03;23.63;;;-2.10;99.90;;;;;;5050779;28;20143;-69
2022/12/17 23:42:23;;;;;;;88.97;27.42;;;-2.00;99.90;;;;;;5050801;28;20044;-68
2022/12/17 23:44:48;;;;;;;82.82;26.80;;;-2.10;99.90;;;;;;5050309;28;20102;-69
2022/12/17 23:47:14;;;;;;;87.30;27.85;;;-2.10;99.90;;;;;;5033103;28;20041;-69
2022/12/17 23:49:39;;;;;;;81.13;25.35;;;-2.10;99.90;;;;;;5050913;28;20120;-70
2022/12/17 23:52:05;;;;;;;78.95;25.38;;;-2.00;99.90;;;;;;5049726;28;20056;-69
2022/12/17 23:54:30;;;;;;;80.18;26.83;;;-2.10;99.90;;;;;;5050000;28;20045;-69
2022/12/17 23:56:56;;;;;;;85.75;26.70;;;-2.00;99.90;;;;;;5051097;28;20131;-69
2022/12/17 23:59:22;;;;;;;76.68;25.50;;;-2.00;99.90;;;;;;5050513;28;20044;-70
